Time;durP1;ratioP1;P1;durP2;ratioP2;P2;SDS_P1;SDS_P2;PMS_P1;PMS_P2;Temp;Humidity;BMP_temperature;BMP_pressure;BME280_temperature;BME280_humidity;BME280_pressure;Samples;Min_cycle;Max_cycle;Signal;HPM_P1;HPM_P2
2023/06/08 00:00:05;;;;;;;7.03;2.45;;;12.70;99.90;;;;;;5053206;28;20061;-56
2023/06/08 00:02:31;;;;;;;5.53;2.40;;;12.70;99.90;;;;;;5052989;28;20492;-55
2023/06/08 00:04:57;;;;;;;6.93;2.27;;;12.70;99.90;;;;;;5053133;28;20102;-56
2023/06/08 00:07:24;;;;;;;6.32;2.58;;;12.70;99.90;;;;;;5053215;28;20072;-54
2023/06/08 00:09:50;;;;;;;7.20;3.33;;;12.70;99.90;;;;;;5052775;28;20060;-55
2023/06/08 00:12:16;;;;;;;8.95;2.53;;;12.70;99.90;;;;;;5053035;28;20071;-55
2023/06/08 00:14:42;;;;;;;6.30;2.78;;;12.70;99.90;;;;;;5052946;28;20045;-56
2023/06/08 00:17:10;;;;;;;6.30;2.83;;;12.70;99.90;;;;;;5053185;28;20080;-55
2023/06/08 00:19:36;;;;;;;7.70;2.92;;;12.70;99.90;;;;;;5052838;28;20051;-55
2023/06/08 00:22:08;;;;;;;5.43;2.58;;;12.80;99.90;;;;;;5055701;28;20124;-55
2023/06/08 00:24:37;;;;;;;5.93;2.63;;;12.80;99.90;;;;;;5056634;28;20138;-54
2023/06/08 00:27:05;;;;;;;6.97;3.08;;;12.80;99.90;;;;;;5056557;28;20081;-55
2023/06/08 00:29:32;;;;;;;5.55;2.70;;;12.80;99.90;;;;;;5056181;28;20060;-56
2023/06/08 00:31:57;;;;;;;8.60;3.15;;;12.70;99.90;;;;;;5056562;28;20163;-55
2023/06/08 00:34:24;;;;;;;6.73;3.57;;;12.70;99.90;;;;;;5056343;28;20048;-54
2023/06/08 00:36:50;;;;;;;9.10;3.20;;;12.70;99.90;;;;;;5056067;28;20049;-55
2023/06/08 00:39:16;;;;;;;8.73;4.07;;;12.70;99.90;;;;;;5055108;28;20037;-56
2023/06/08 00:41:41;;;;;;;7.80;3.92;;;12.70;99.90;;;;;;5056186;28;20412;-54
2023/06/08 00:44:08;;;;;;;9.45;3.88;;;12.70;99.90;;;;;;5056231;28;20041;-56
2023/06/08 00:46:35;;;;;;;8.23;3.67;;;12.80;99.90;;;;;;5055996;28;20045;-55
2023/06/08 00:49:01;;;;;;;9.77;3.92;;;12.80;99.90;;;;;;5055923;28;20502;-56
2023/06/08 00:51:33;;;;;;;10.02;3.75;;;12.80;99.90;;;;;;5055957;28;20099;-56
2023/06/08 00:53:59;;;;;;;6.10;3.10;;;12.80;99.90;;;;;;5056625;28;20189;-56
2023/06/08 00:56:31;;;;;;;6.95;3.05;;;12.80;99.90;;;;;;5056132;28;20060;-55
2023/06/08 00:59:03;;;;;;;7.38;3.40;;;12.80;99.90;;;;;;5055032;28;20377;-52
2023/06/08 01:01:35;;;;;;;10.30;3.60;;;12.80;99.90;;;;;;5055941;28;20056;-54
2023/06/08 01:04:08;;;;;;;6.55;3.05;;;12.80;99.90;;;;;;5055790;28;20123;-55
2023/06/08 01:06:35;;;;;;;7.10;2.95;;;12.80;99.90;;;;;;5055807;28;20508;-55
2023/06/08 01:09:21;;;;;;;6.10;3.25;;;12.80;99.90;;;;;;5055842;28;20041;-55
2023/06/08 01:12:15;;;;;;;7.03;3.30;;;12.80;99.90;;;;;;5055733;28;20247;-55
2023/06/08 01:14:53;;;;;;;7.63;3.15;;;12.80;99.90;;;;;;5054908;28;20099;-56
2023/06/08 01:17:24;;;;;;;6.97;3.13;;;12.80;99.90;;;;;;5055556;28;20045;-56
2023/06/08 01:20:04;;;;;;;7.60;3.15;;;12.70;99.90;;;;;;5054935;28;20041;-54
2023/06/08 01:23:03;;;;;;;8.73;3.33;;;12.70;99.90;;;;;;5055443;28;20507;-56
2023/06/08 01:25:31;;;;;;;8.10;3.47;;;12.70;99.90;;;;;;5050165;28;20056;-55
2023/06/08 01:28:15;;;;;;;10.63;3.08;;;12.70;99.90;;;;;;5055371;28;20131;-55
2023/06/08 01:30:43;;;;;;;9.73;4.13;;;12.60;99.90;;;;;;5054937;28;20071;-54
2023/06/08 01:33:12;;;;;;;7.80;3.38;;;12.60;99.90;;;;;;5053893;28;20102;-55
2023/06/08 01:35:38;;;;;;;6.90;3.35;;;12.60;99.90;;;;;;5055148;28;20072;-56
2023/06/08 01:38:23;;;;;;;6.90;3.10;;;12.60;99.90;;;;;;5055558;28;20041;-55
2023/06/08 01:40:52;;;;;;;7.95;3.45;;;12.60;99.90;;;;;;5055448;28;20052;-55
2023/06/08 01:43:20;;;;;;;9.55;3.45;;;12.60;99.90;;;;;;5054849;28;20488;-53
2023/06/08 01:45:50;;;;;;;10.95;3.17;;;12.60;99.90;;;;;;5054849;28;20048;-54
2023/06/08 01:48:22;;;;;;;6.95;3.20;;;12.60;99.90;;;;;;5054169;28;20064;-55
2023/06/08 01:50:49;;;;;;;8.65;3.88;;;12.60;99.90;;;;;;5054866;28;20132;-56
2023/06/08 01:53:16;;;;;;;8.38;3.35;;;12.60;99.90;;;;;;5053776;28;20494;-54
2023/06/08 01:55:42;;;;;;;10.90;3.88;;;12.60;99.90;;;;;;5054920;28;20099;-54
2023/06/08 01:58:07;;;;;;;8.63;3.40;;;12.60;99.90;;;;;;5054894;28;20080;-53
2023/06/08 02:00:33;;;;;;;8.00;3.50;;;12.60;99.90;;;;;;5054819;28;20056;-54
2023/06/08 02:02:59;;;;;;;9.23;4.47;;;12.60;99.90;;;;;;5054784;28;20048;-53
2023/06/08 02:05:25;;;;;;;7.25;3.50;;;12.70;99.90;;;;;;5054630;28;20481;-55
2023/06/08 02:07:50;;;;;;;9.23;3.27;;;12.70;99.90;;;;;;5054547;28;20045;-53
2023/06/08 02:10:17;;;;;;;9.17;3.83;;;12.70;99.90;;;;;;5054571;28;20344;-55
2023/06/08 02:12:42;;;;;;;6.63;3.03;;;12.70;99.90;;;;;;5054463;28;20049;-56
2023/06/08 02:15:08;;;;;;;6.43;2.72;;;12.70;99.90;;;;;;5054109;28;20072;-55
2023/06/08 02:17:35;;;;;;;11.02;3.80;;;12.70;99.90;;;;;;5054444;28;20040;-55
2023/06/08 02:20:05;;;;;;;;;;;12.70;99.90;;;;;;5055013;28;20053;-55
2023/06/08 02:22:31;;;;;;;5.72;2.65;;;12.70;99.90;;;;;;5053350;28;20007;-56
2023/06/08 02:24:57;;;;;;;6.78;2.30;;;12.70;99.90;;;;;;5054218;28;20084;-54
2023/06/08 02:27:22;;;;;;;5.40;2.80;;;12.70;99.90;;;;;;5053995;28;20076;-55
2023/06/08 02:29:48;;;;;;;8.60;2.97;;;12.70;99.90;;;;;;5054359;28;20110;-55
2023/06/08 02:32:14;;;;;;;5.43;2.40;;;12.70;99.90;;;;;;5054408;28;20055;-55
2023/06/08 02:34:40;;;;;;;6.30;3.38;;;12.70;99.90;;;;;;5053952;28;20393;-55
2023/06/08 02:37:06;;;;;;;7.97;3.55;;;12.70;99.90;;;;;;5054086;28;20080;-51
2023/06/08 02:39:32;;;;;;;7.50;3.60;;;12.70;99.90;;;;;;5053886;28;20098;-54
2023/06/08 02:41:57;;;;;;;7.50;3.07;;;12.70;99.90;;;;;;5053878;28;20094;-55
2023/06/08 02:44:23;;;;;;;10.15;3.90;;;12.70;99.90;;;;;;5052520;28;20495;-54
2023/06/08 02:46:49;;;;;;;10.27;4.27;;;12.60;99.90;;;;;;5052998;28;20055;-55
2023/06/08 02:49:14;;;;;;;8.23;3.27;;;12.60;99.90;;;;;;5053850;28;20049;-55
2023/06/08 02:51:40;;;;;;;10.77;3.90;;;12.60;99.90;;;;;;5053813;28;20045;-55
2023/06/08 02:54:06;;;;;;;6.78;3.28;;;12.60;99.90;;;;;;5053631;28;20476;-55
2023/06/08 02:56:31;;;;;;;8.07;3.40;;;12.60;99.90;;;;;;5053570;28;20378;-55
2023/06/08 02:58:57;;;;;;;8.97;3.07;;;12.60;99.90;;;;;;5053788;28;20388;-55
2023/06/08 03:01:23;;;;;;;7.38;3.63;;;12.70;99.90;;;;;;5053779;28;20049;-55
2023/06/08 03:03:51;;;;;;;6.63;2.97;;;12.70;99.90;;;;;;5053664;28;20056;-55
2023/06/08 03:06:18;;;;;;;7.57;2.97;;;12.70;99.90;;;;;;5053858;28;20459;-55
2023/06/08 03:08:46;;;;;;;;;;;12.70;99.90;;;;;;5053937;28;20049;-56
2023/06/08 03:11:13;;;;;;;6.63;2.70;;;12.70;99.90;;;;;;5053529;28;19975;-54
2023/06/08 03:13:38;;;;;;;8.80;3.08;;;12.70;99.90;;;;;;5053581;28;20067;-55
2023/06/08 03:16:04;;;;;;;8.00;2.23;;;12.70;99.90;;;;;;5035691;28;20407;-55
2023/06/08 03:18:30;;;;;;;9.02;2.75;;;12.70;99.90;;;;;;5052446;28;20049;-54
2023/06/08 03:20:58;;;;;;;18.20;3.83;;;12.60;99.90;;;;;;5052621;28;20049;-54
2023/06/08 03:23:24;;;;;;;5.20;2.47;;;12.60;99.90;;;;;;5053559;28;20049;-55
2023/06/08 03:25:50;;;;;;;6.85;3.28;;;12.60;99.90;;;;;;5053228;28;20043;-55
2023/06/08 03:28:17;;;;;;;5.25;3.00;;;12.60;99.90;;;;;;5052645;28;20052;-55
2023/06/08 03:30:42;;;;;;;6.38;2.78;;;12.60;99.90;;;;;;5052001;28;20049;-53
2023/06/08 03:33:08;;;;;;;5.87;2.73;;;12.60;99.90;;;;;;5053420;28;20186;-54
2023/06/08 03:35:34;;;;;;;7.43;2.93;;;12.60;99.90;;;;;;5053290;28;20342;-54
2023/06/08 03:38:00;;;;;;;8.00;2.97;;;12.70;99.90;;;;;;5053202;28;20053;-53
2023/06/08 03:40:25;;;;;;;6.50;2.70;;;12.60;99.90;;;;;;5053234;28;20056;-56
2023/06/08 03:42:51;;;;;;;10.53;2.80;;;12.60;99.90;;;;;;5052524;28;20488;-54
2023/06/08 03:45:17;;;;;;;5.13;2.17;;;12.70;99.90;;;;;;5052413;28;20431;-55
2023/06/08 03:47:43;;;;;;;5.32;2.45;;;12.60;99.90;;;;;;5053264;28;20385;-55
2023/06/08 03:50:11;;;;;;;5.90;2.85;;;12.70;99.90;;;;;;5053563;28;20136;-53
2023/06/08 03:52:40;;;;;;;5.88;2.58;;;12.70;99.90;;;;;;5053128;28;20049;-55
2023/06/08 03:55:07;;;;;;;6.45;2.03;;;12.70;99.90;;;;;;5035056;28;20084;-55
2023/06/08 03:57:33;;;;;;;5.95;2.40;;;12.60;99.90;;;;;;5056030;28;20049;-55
2023/06/08 03:59:58;;;;;;;7.17;2.60;;;12.70;99.90;;;;;;5057089;28;20063;-55
2023/06/08 04:02:24;;;;;;;9.67;3.17;;;12.70;99.90;;;;;;5039339;28;20052;-55
2023/06/08 04:04:50;;;;;;;8.10;2.70;;;12.70;99.90;;;;;;5056862;28;20037;-54
2023/06/08 04:07:16;;;;;;;6.40;2.93;;;12.70;99.90;;;;;;5056872;28;20055;-54
2023/06/08 04:09:42;;;;;;;9.07;3.30;;;12.70;99.90;;;;;;5055451;28;20080;-53
2023/06/08 04:12:08;;;;;;;9.05;2.78;;;12.80;99.90;;;;;;5056896;28;20095;-55
2023/06/08 04:14:34;;;;;;;6.75;2.72;;;12.80;99.90;;;;;;5056508;28;20472;-55
2023/06/08 04:17:00;;;;;;;7.68;3.10;;;12.80;99.90;;;;;;5056766;28;20128;-55
2023/06/08 04:19:26;;;;;;;7.75;2.50;;;12.80;99.90;;;;;;5056706;28;20049;-55
2023/06/08 04:21:56;;;;;;;6.75;2.65;;;12.80;99.90;;;;;;5055700;28;20056;-55
2023/06/08 04:24:33;;;;;;;16.65;2.75;;;12.80;99.90;;;;;;5056693;28;20400;-56
2023/06/08 04:26:58;;;;;;;6.75;2.50;;;12.80;99.90;;;;;;5056974;28;20056;-53
2023/06/08 04:29:25;;;;;;;8.03;2.50;;;12.80;99.90;;;;;;5056602;28;20393;-53
2023/06/08 04:31:51;;;;;;;6.57;2.38;;;12.80;99.90;;;;;;5056362;28;20511;-54
2023/06/08 04:34:17;;;;;;;6.00;2.20;;;12.90;99.90;;;;;;5056331;28;20045;-54
2023/06/08 04:36:43;;;;;;;7.33;2.67;;;12.90;99.90;;;;;;5056129;28;20044;-54
2023/06/08 04:39:09;;;;;;;9.80;2.72;;;12.90;99.90;;;;;;5056772;28;20048;-55
2023/06/08 04:41:36;;;;;;;7.40;2.17;;;12.90;99.90;;;;;;5056639;28;20422;-54
2023/06/08 04:44:02;;;;;;;;;;;12.90;99.90;;;;;;5056652;28;20037;-53
2023/06/08 04:46:30;;;;;;;6.43;2.28;;;12.90;99.90;;;;;;5056113;28;19924;-54
2023/06/08 04:48:56;;;;;;;6.65;2.85;;;12.90;99.90;;;;;;5055020;28;20056;-55
2023/06/08 04:51:29;;;;;;;6.45;2.35;;;12.90;99.90;;;;;;5055805;28;20099;-55
2023/06/08 04:54:03;;;;;;;5.95;2.55;;;12.90;99.90;;;;;;5054957;28;20055;-55
2023/06/08 04:56:33;;;;;;;8.65;2.50;;;12.90;99.90;;;;;;5056068;28;20052;-53
2023/06/08 04:59:01;;;;;;;6.25;2.40;;;13.00;99.90;;;;;;5055838;28;20045;-54
2023/06/08 05:01:28;;;;;;;7.00;2.75;;;13.00;99.90;;;;;;5055876;28;20084;-55
2023/06/08 05:03:53;;;;;;;4.85;1.92;;;13.00;99.90;;;;;;5055731;28;20087;-53
2023/06/08 05:06:19;;;;;;;5.70;2.00;;;13.00;99.90;;;;;;5055760;28;20471;-55
2023/06/08 05:08:45;;;;;;;7.03;2.35;;;13.00;99.90;;;;;;5056268;28;20114;-54
2023/06/08 05:11:12;;;;;;;7.57;2.30;;;13.00;99.90;;;;;;5054914;28;20362;-55
2023/06/08 05:13:38;;;;;;;7.25;2.92;;;13.00;99.90;;;;;;5055657;28;20280;-54
2023/06/08 05:16:04;;;;;;;6.63;2.60;;;13.00;99.90;;;;;;5055648;28;20041;-53
2023/06/08 05:18:30;;;;;;;7.35;2.50;;;13.00;99.90;;;;;;5055348;28;20060;-54
2023/06/08 05:20:55;;;;;;;6.93;2.42;;;13.00;99.90;;;;;;5055832;28;20045;-54
2023/06/08 05:23:22;;;;;;;7.47;1.70;;;13.00;99.90;;;;;;5055483;28;20049;-53
2023/06/08 05:25:48;;;;;;;;;;;13.00;99.90;;;;;;5038126;28;20135;-55
2023/06/08 05:28:13;;;;;;;7.07;2.13;;;13.00;99.90;;;;;;5055261;28;20015;-53
2023/06/08 05:30:39;;;;;;;6.23;2.23;;;13.00;99.90;;;;;;5055551;28;20095;-53
2023/06/08 05:33:05;;;;;;;6.25;2.50;;;13.00;99.90;;;;;;5054293;28;20540;-51
2023/06/08 05:35:31;;;;;;;7.53;2.60;;;13.00;99.90;;;;;;5054107;28;20060;-49
2023/06/08 05:37:56;;;;;;;5.77;2.10;;;13.00;99.90;;;;;;5055278;28;20045;-53
2023/06/08 05:40:24;;;;;;;5.00;2.20;;;13.10;99.90;;;;;;5055045;28;20053;-52
2023/06/08 05:42:50;;;;;;;7.15;3.03;;;13.10;99.90;;;;;;5054096;28;20349;-53
2023/06/08 05:45:16;;;;;;;8.05;2.97;;;13.10;99.90;;;;;;5053957;28;20056;-53
2023/06/08 05:47:42;;;;;;;5.25;2.35;;;13.10;99.90;;;;;;5054881;28;20053;-48
2023/06/08 05:50:08;;;;;;;6.13;2.25;;;13.20;99.90;;;;;;5055039;28;20049;-52
2023/06/08 05:52:34;;;;;;;7.57;2.60;;;13.20;99.90;;;;;;5054873;28;20037;-51
2023/06/08 05:55:02;;;;;;;9.13;3.13;;;13.20;99.90;;;;;;5054752;28;20503;-49
2023/06/08 05:57:28;;;;;;;7.25;2.45;;;13.20;99.90;;;;;;5053993;28;20129;-48
2023/06/08 05:59:54;;;;;;;7.75;2.95;;;13.20;99.90;;;;;;5054755;28;20134;-52
2023/06/08 06:02:20;;;;;;;7.82;3.30;;;13.30;99.90;;;;;;5054630;28;20045;-48
2023/06/08 06:04:45;;;;;;;8.10;2.23;;;13.30;99.90;;;;;;5054748;28;20041;-51
2023/06/08 06:07:11;;;;;;;5.30;2.13;;;13.30;99.90;;;;;;5054540;28;20051;-54
2023/06/08 06:09:36;;;;;;;4.97;2.10;;;13.40;99.90;;;;;;5054569;28;20133;-51
2023/06/08 06:12:03;;;;;;;6.40;2.07;;;13.40;99.90;;;;;;5053689;28;20107;-52
2023/06/08 06:14:39;;;;;;;5.50;2.33;;;13.40;99.90;;;;;;5053169;28;20041;-50
2023/06/08 06:17:06;;;;;;;6.13;1.70;;;13.40;99.90;;;;;;5054424;28;20055;-49
2023/06/08 06:19:36;;;;;;;7.43;2.25;;;13.40;99.90;;;;;;5053878;28;20087;-50
2023/06/08 06:22:06;;;;;;;6.38;2.00;;;13.50;99.90;;;;;;5054362;28;20128;-49
2023/06/08 06:24:31;;;;;;;6.45;2.63;;;13.60;99.90;;;;;;5054276;28;20128;-47
2023/06/08 06:26:58;;;;;;;6.47;2.20;;;13.60;99.90;;;;;;5054308;28;20131;-53
2023/06/08 06:29:24;;;;;;;4.95;1.83;;;13.60;99.90;;;;;;5053820;28;20453;-48
2023/06/08 06:31:50;;;;;;;6.57;2.35;;;13.70;99.90;;;;;;5054279;28;20057;-51
2023/06/08 06:34:16;;;;;;;7.63;2.50;;;13.70;99.90;;;;;;5054022;28;20064;-50
2023/06/08 06:36:42;;;;;;;8.55;2.25;;;13.80;99.90;;;;;;5054128;28;20049;-53
2023/06/08 06:39:07;;;;;;;4.00;1.80;;;13.90;99.90;;;;;;5054225;28;20059;-48
2023/06/08 06:41:33;;;;;;;6.27;1.83;;;14.00;99.90;;;;;;5053950;28;20049;-48
2023/06/08 06:43:58;;;;;;;6.93;2.03;;;14.00;99.90;;;;;;5053006;28;20131;-49
2023/06/08 06:46:25;;;;;;;7.27;2.10;;;14.20;99.90;;;;;;5054410;28;20045;-47
2023/06/08 06:48:51;;;;;;;6.68;2.45;;;14.30;99.90;;;;;;5053519;28;20084;-52
2023/06/08 06:51:17;;;;;;;6.20;1.90;;;14.50;99.90;;;;;;5053958;28;20091;-46
2023/06/08 06:53:42;;;;;;;4.82;1.90;;;14.60;99.90;;;;;;5053464;28;20098;-48
2023/06/08 06:56:08;;;;;;;6.03;1.50;;;14.80;99.90;;;;;;5053793;28;20052;-47
2023/06/08 06:58:34;;;;;;;8.43;2.10;;;14.90;99.90;;;;;;5052587;28;20295;-47
2023/06/08 07:01:01;;;;;;;6.07;1.85;;;14.90;99.90;;;;;;5053777;28;20048;-49
2023/06/08 07:03:27;;;;;;;;;;;15.00;99.90;;;;;;5054197;28;20051;-48
2023/06/08 07:05:57;;;;;;;6.30;2.00;;;15.00;99.90;;;;;;5053715;28;20368;-46
2023/06/08 07:08:27;;;;;;;6.93;1.90;;;15.00;99.90;;;;;;5052697;28;20053;-47
2023/06/08 07:10:53;;;;;;;6.28;1.92;;;15.20;99.90;;;;;;5052591;28;20045;-48
2023/06/08 07:13:19;;;;;;;5.60;2.15;;;15.40;99.90;;;;;;5054069;28;20041;-52
2023/06/08 07:15:45;;;;;;;6.67;2.07;;;15.50;99.90;;;;;;5053534;28;20107;-50
2023/06/08 07:18:10;;;;;;;5.30;1.70;;;15.60;99.90;;;;;;5053764;28;20366;-51
2023/06/08 07:20:36;;;;;;;8.57;2.63;;;15.70;99.90;;;;;;5053002;28;20057;-52
2023/06/08 07:23:02;;;;;;;5.43;1.93;;;15.70;99.90;;;;;;5053325;28;20280;-48
2023/06/08 07:25:27;;;;;;;5.23;1.50;;;16.00;99.90;;;;;;5053308;28;20048;-54
2023/06/08 07:27:53;;;;;;;8.17;1.93;;;16.30;99.90;;;;;;5053242;28;20782;-52
2023/06/08 07:30:19;;;;;;;5.23;1.77;;;16.50;99.90;;;;;;5053443;28;20057;-50
2023/06/08 07:32:45;;;;;;;8.48;2.60;;;16.50;99.90;;;;;;5057647;28;20370;-52
2023/06/08 07:35:11;;;;;;;5.32;1.98;;;16.50;99.90;;;;;;5057718;28;20449;-47
2023/06/08 07:37:37;;;;;;;8.63;2.13;;;16.30;99.90;;;;;;5057513;28;20084;-50
2023/06/08 07:40:11;;;;;;;4.77;1.97;;;16.20;99.90;;;;;;5057397;28;20091;-47
2023/06/08 07:42:37;;;;;;;7.43;2.03;;;16.20;99.90;;;;;;5057107;28;20279;-53
2023/06/08 07:45:03;;;;;;;6.93;2.03;;;16.10;99.90;;;;;;5057551;28;20128;-48
2023/06/08 07:47:28;;;;;;;4.78;2.15;;;16.10;99.90;;;;;;5057218;28;20041;-49
2023/06/08 07:49:55;;;;;;;10.13;2.30;;;16.10;99.90;;;;;;5057338;28;20094;-49
2023/06/08 07:52:21;;;;;;;5.88;1.95;;;16.00;99.90;;;;;;5056161;28;20053;-49
2023/06/08 07:54:47;;;;;;;5.60;2.40;;;15.90;99.90;;;;;;5056922;28;20052;-48
2023/06/08 07:57:13;;;;;;;7.23;2.20;;;15.90;99.90;;;;;;5056842;28;20040;-52
2023/06/08 07:59:39;;;;;;;8.55;2.67;;;15.90;99.90;;;;;;5055979;28;20289;-49
2023/06/08 08:02:08;;;;;;;7.15;1.90;;;16.00;99.90;;;;;;5055788;28;20407;-49
2023/06/08 08:04:33;;;;;;;8.27;2.03;;;16.00;99.90;;;;;;5057237;28;20049;-48
2023/06/08 08:06:59;;;;;;;5.18;1.95;;;16.00;99.90;;;;;;5056108;28;20040;-49
2023/06/08 08:09:25;;;;;;;7.28;2.30;;;16.00;99.90;;;;;;5055729;28;20081;-52
2023/06/08 08:11:50;;;;;;;6.47;2.30;;;16.00;99.90;;;;;;5056915;28;20056;-49
2023/06/08 08:14:16;;;;;;;9.27;2.40;;;16.00;99.90;;;;;;5056745;28;20374;-54
2023/06/08 08:16:42;;;;;;;6.43;2.25;;;16.00;99.90;;;;;;5056570;28;20333;-49
2023/06/08 08:19:07;;;;;;;7.15;2.05;;;16.10;99.90;;;;;;5056713;28;20132;-48
2023/06/08 08:21:33;;;;;;;4.90;2.03;;;16.10;99.90;;;;;;5056853;28;20080;-47
2023/06/08 08:24:00;;;;;;;4.45;1.60;;;16.10;99.90;;;;;;5038997;28;20143;-48
2023/06/08 08:26:28;;;;;;;4.43;2.28;;;16.10;99.90;;;;;;5055379;28;20049;-52
2023/06/08 08:28:55;;;;;;;4.90;1.38;;;16.10;99.90;;;;;;5056864;28;20442;-49
2023/06/08 08:31:21;;;;;;;7.18;2.35;;;16.10;99.90;;;;;;5057002;28;20061;-55
2023/06/08 08:33:47;;;;;;;4.60;2.38;;;16.20;99.90;;;;;;5056530;28;20392;-47
2023/06/08 08:36:12;;;;;;;6.32;2.05;;;16.10;99.90;;;;;;5056332;28;20518;-47
2023/06/08 08:38:41;;;;;;;7.78;2.17;;;16.20;99.90;;;;;;5055070;28;20076;-47
2023/06/08 08:41:12;;;;;;;7.63;1.98;;;16.10;99.90;;;;;;5054865;28;20041;-50
2023/06/08 08:44:03;;;;;;;5.68;1.83;;;16.20;99.90;;;;;;5055520;28;20153;-48
2023/06/08 08:46:34;;;;;;;6.75;2.40;;;16.20;99.90;;;;;;5056318;28;20053;-51
2023/06/08 08:49:04;;;;;;;4.35;1.75;;;16.20;99.90;;;;;;5056163;28;20126;-54
2023/06/08 08:51:32;;;;;;;7.57;2.03;;;16.20;99.90;;;;;;5056336;28;20048;-55
2023/06/08 08:54:02;;;;;;;5.38;1.90;;;16.20;99.90;;;;;;5056054;28;20415;-55
2023/06/08 08:56:30;;;;;;;4.38;2.10;;;16.30;99.90;;;;;;5056126;28;20575;-53
2023/06/08 08:58:56;;;;;;;6.25;2.28;;;16.30;99.90;;;;;;5055902;28;20041;-51
2023/06/08 09:01:23;;;;;;;3.97;1.90;;;16.30;99.90;;;;;;5055811;28;20051;-54
2023/06/08 09:03:50;;;;;;;6.35;2.30;;;16.30;99.90;;;;;;5054692;28;20053;-51
2023/06/08 09:06:16;;;;;;;7.18;2.30;;;16.40;99.90;;;;;;5056047;28;20041;-55
2023/06/08 09:08:41;;;;;;;6.65;1.90;;;16.40;99.90;;;;;;5056012;28;20480;-51
2023/06/08 09:11:09;;;;;;;7.03;2.20;;;16.40;99.90;;;;;;5055869;28;20491;-51
2023/06/08 09:13:37;;;;;;;5.78;1.80;;;16.40;99.90;;;;;;5055720;28;20288;-51
2023/06/08 09:16:14;;;;;;;3.45;1.65;;;16.40;99.90;;;;;;5055610;28;20048;-53
2023/06/08 09:18:45;;;;;;;4.32;1.52;;;16.40;99.90;;;;;;5055714;28;20080;-50
2023/06/08 09:21:26;;;;;;;6.10;1.70;;;16.40;99.90;;;;;;5055904;28;20111;-54
2023/06/08 09:24:12;;;;;;;5.85;1.67;;;16.50;99.90;;;;;;5055733;28;20045;-50
2023/06/08 09:26:51;;;;;;;6.00;1.88;;;16.50;99.90;;;;;;5055464;28;20135;-49
2023/06/08 09:29:36;;;;;;;5.68;1.80;;;16.50;99.90;;;;;;5055227;28;20049;-54
2023/06/08 09:32:03;;;;;;;4.80;1.92;;;16.50;99.90;;;;;;5055438;28;20092;-50
2023/06/08 09:34:35;;;;;;;5.13;2.00;;;16.50;99.90;;;;;;5055269;28;20084;-52
2023/06/08 09:37:08;;;;;;;5.45;2.08;;;16.50;99.90;;;;;;5055277;28;20052;-52
2023/06/08 09:39:41;;;;;;;6.15;2.10;;;16.50;99.90;;;;;;5054349;28;20392;-52
2023/06/08 09:42:07;;;;;;;3.97;1.55;;;16.60;99.90;;;;;;5055605;28;20385;-53
2023/06/08 09:44:33;;;;;;;5.63;1.83;;;16.60;99.90;;;;;;5055173;28;20041;-48
2023/06/08 09:46:58;;;;;;;7.10;2.13;;;16.60;99.90;;;;;;5055091;28;20055;-53
2023/06/08 09:49:24;;;;;;;5.30;1.97;;;16.70;99.90;;;;;;5054897;28;20051;-48
2023/06/08 09:51:53;;;;;;;4.60;1.48;;;16.70;99.90;;;;;;5054999;28;20810;-47
2023/06/08 09:54:20;;;;;;;6.20;1.70;;;16.70;99.90;;;;;;5053983;28;20095;-52
2023/06/08 09:56:54;;;;;;;6.13;1.80;;;16.80;99.90;;;;;;5054930;28;20049;-49
2023/06/08 09:59:22;;;;;;;8.35;2.22;;;16.80;99.90;;;;;;5054903;28;20098;-47
2023/06/08 10:01:55;;;;;;;6.15;1.90;;;16.80;99.90;;;;;;5053746;28;20110;-53
2023/06/08 10:04:26;;;;;;;6.47;2.05;;;16.80;99.90;;;;;;5054701;28;20049;-53
2023/06/08 10:07:03;;;;;;;5.45;2.10;;;16.90;99.90;;;;;;5054922;28;20582;-52
2023/06/08 10:09:33;;;;;;;5.32;1.80;;;16.90;99.90;;;;;;5054978;28;20052;-48
2023/06/08 10:12:00;;;;;;;7.75;2.00;;;16.90;99.90;;;;;;5054481;28;20048;-49
2023/06/08 10:14:26;;;;;;;3.40;1.73;;;17.00;99.90;;;;;;5054413;28;20404;-49
2023/06/08 10:16:54;;;;;;;4.00;1.42;;;17.10;99.90;;;;;;5054381;28;20072;-47
2023/06/08 10:19:21;;;;;;;6.57;1.98;;;17.20;99.90;;;;;;5054515;28;20051;-53
2023/06/08 10:21:55;;;;;;;4.57;1.63;;;17.20;99.90;;;;;;5054443;28;20068;-50
2023/06/08 10:24:24;;;;;;;3.92;1.80;;;17.20;99.90;;;;;;5054504;28;20397;-52
2023/06/08 10:26:50;;;;;;;5.95;2.63;;;17.30;99.90;;;;;;5054098;28;20123;-52
2023/06/08 10:29:17;;;;;;;5.03;2.03;;;17.30;99.90;;;;;;5053942;28;20045;-48
2023/06/08 10:31:50;;;;;;;4.50;1.55;;;17.40;99.90;;;;;;5054643;28;20057;-54
2023/06/08 10:34:17;;;;;;;4.32;1.85;;;17.50;99.90;;;;;;5054160;28;20046;-47
2023/06/08 10:36:44;;;;;;;5.53;1.50;;;17.50;99.90;;;;;;5054031;28;20056;-54
2023/06/08 10:39:12;;;;;;;4.95;1.50;;;17.60;99.90;;;;;;5054007;28;20083;-48
2023/06/08 10:41:46;;;;;;;6.05;1.70;;;17.70;99.90;;;;;;5053927;28;20072;-51
2023/06/08 10:44:31;;;;;;;6.53;1.80;;;17.80;99.90;;;;;;5036303;28;20131;-47
2023/06/08 10:47:04;;;;;;;6.10;1.95;;;17.90;99.90;;;;;;5053923;28;20385;-54
2023/06/08 10:49:43;;;;;;;6.20;1.85;;;18.00;99.90;;;;;;5053981;28;20052;-52
2023/06/08 10:52:10;;;;;;;7.63;2.17;;;18.10;99.90;;;;;;5053865;28;20037;-53
2023/06/08 10:55:14;;;;;;;;;;;18.00;99.90;;;;;;5053668;28;20561;-50
2023/06/08 10:57:50;;;;;;;3.92;1.55;;;18.10;99.90;;;;;;5012094;28;19936;-54
2023/06/08 11:00:28;;;;;;;4.63;1.55;;;18.20;99.90;;;;;;5048809;28;20417;-52
2023/06/08 11:03:05;;;;;;;4.45;1.52;;;18.30;99.90;;;;;;5054023;28;20110;-54
2023/06/08 11:05:34;;;;;;;10.15;2.05;;;18.30;99.90;;;;;;5053668;28;20045;-51
2023/06/08 11:08:01;;;;;;;6.95;2.08;;;18.40;99.90;;;;;;5053594;28;20080;-54
2023/06/08 11:10:28;;;;;;;5.28;1.90;;;18.30;99.90;;;;;;5053390;28;20496;-55
2023/06/08 11:13:05;;;;;;;5.28;2.00;;;18.30;99.90;;;;;;5052417;28;20131;-55
2023/06/08 11:15:31;;;;;;;;;;;18.40;99.90;;;;;;5053951;28;20041;-53
2023/06/08 11:17:58;;;;;;;7.35;2.67;;;18.50;99.90;;;;;;5053564;28;19990;-53
2023/06/08 11:20:27;;;;;;;6.45;1.95;;;18.50;99.90;;;;;;5053598;28;20049;-53
2023/06/08 11:22:54;;;;;;;4.43;2.17;;;18.50;99.90;;;;;;5053714;28;20096;-55
2023/06/08 11:25:20;;;;;;;;;;;18.50;99.90;;;;;;5053712;28;20499;-55
2023/06/08 11:27:46;;;;;;;4.85;1.90;;;18.50;99.90;;;;;;5053439;28;19924;-51
2023/06/08 11:30:22;;;;;;;4.63;1.92;;;18.60;99.90;;;;;;5053129;28;20506;-54
2023/06/08 11:32:50;;;;;;;4.93;1.50;;;18.70;99.90;;;;;;5053741;28;20061;-52
2023/06/08 11:35:18;;;;;;;3.60;1.45;;;18.80;99.90;;;;;;5053224;28;20469;-55
2023/06/08 11:37:44;;;;;;;4.78;1.80;;;18.80;99.90;;;;;;5053318;28;20503;-54
2023/06/08 11:40:14;;;;;;;4.32;1.63;;;18.80;99.90;;;;;;5053248;28;20484;-54
2023/06/08 11:42:41;;;;;;;3.78;1.23;;;18.80;99.90;;;;;;5053557;28;20045;-54
2023/06/08 11:45:12;;;;;;;7.22;2.00;;;18.90;99.90;;;;;;5052277;28;20519;-53
2023/06/08 11:47:45;;;;;;;5.10;1.13;;;19.00;99.90;;;;;;5053207;28;20049;-53
2023/06/08 11:50:13;;;;;;;3.45;1.20;;;19.10;99.90;;;;;;5053254;28;20056;-54
2023/06/08 11:52:41;;;;;;;7.95;2.08;;;19.10;99.90;;;;;;5053027;28;20053;-51
2023/06/08 11:55:11;;;;;;;4.70;1.55;;;19.30;99.90;;;;;;5053148;28;20045;-55
2023/06/08 11:57:49;;;;;;;3.95;1.10;;;19.40;99.90;;;;;;5053316;28;20497;-54
2023/06/08 12:00:22;;;;;;;6.38;1.23;;;19.40;99.90;;;;;;5053102;28;20129;-54
2023/06/08 12:02:49;;;;;;;3.90;1.20;;;19.40;99.90;;;;;;5052221;28;20049;-51
2023/06/08 12:05:21;;;;;;;3.53;1.55;;;19.40;99.90;;;;;;5052821;28;20546;-52
2023/06/08 12:08:11;;;;;;;4.70;1.60;;;19.50;99.90;;;;;;5052235;28;20136;-56
2023/06/08 12:10:41;;;;;;;4.43;1.50;;;19.50;99.90;;;;;;5052879;28;20045;-55
2023/06/08 12:13:15;;;;;;;4.72;1.40;;;19.50;99.90;;;;;;5052058;28;20496;-54
2023/06/08 12:15:43;;;;;;;5.13;1.30;;;19.50;99.90;;;;;;5052937;28;20102;-51
2023/06/08 12:18:13;;;;;;;4.53;1.70;;;19.60;99.90;;;;;;5056118;28;20057;-55
2023/06/08 12:20:40;;;;;;;5.60;1.50;;;19.60;99.90;;;;;;5056792;28;20053;-55
2023/06/08 12:23:06;;;;;;;4.28;1.60;;;19.70;99.90;;;;;;5056592;28;20545;-50
2023/06/08 12:25:32;;;;;;;3.08;0.98;;;19.70;99.90;;;;;;5055700;28;20053;-52
2023/06/08 12:27:58;;;;;;;5.65;1.40;;;19.80;99.90;;;;;;5056334;28;20091;-54
2023/06/08 12:30:25;;;;;;;6.78;1.73;;;19.70;99.90;;;;;;5038733;28;20053;-53
2023/06/08 12:32:52;;;;;;;5.85;1.63;;;19.80;99.90;;;;;;5056563;28;20056;-53
2023/06/08 12:35:18;;;;;;;4.47;1.38;;;19.70;99.90;;;;;;5056645;28;20127;-52
2023/06/08 12:37:48;;;;;;;5.03;1.20;;;19.60;99.90;;;;;;5056499;28;20048;-52
2023/06/08 12:40:17;;;;;;;4.82;1.30;;;19.60;99.90;;;;;;5056411;28;20049;-54
2023/06/08 12:42:48;;;;;;;2.47;1.00;;;19.60;99.90;;;;;;5056095;28;20127;-51
2023/06/08 12:45:16;;;;;;;3.20;0.98;;;19.70;99.90;;;;;;5056362;28;20041;-56
2023/06/08 12:47:41;;;;;;;3.33;1.10;;;19.80;99.90;;;;;;5055283;28;20155;-54
2023/06/08 12:50:08;;;;;;;4.50;1.50;;;19.80;99.90;;;;;;5056236;28;20519;-55
2023/06/08 12:52:34;;;;;;;4.18;1.33;;;19.80;99.90;;;;;;5055070;28;20053;-55